<?xml version="1.0" encoding="UTF-8" standalone="no" ?>
<gpx xmlns="http://www.topografix.com/GPX/1/1" xmlns:xsi="http://www.w3.org/2001/XMLSchema-instance" xsi:schemaLocation="http://www.topografix.com/GPX/1/1 http://www.topografix.com/GPX/1/1/gpx.xsd" version="1.1" creator="VisuGPX - https://www.visugpx.com">
  <metadata>
    <name>Mini Raid des Jambes Raides - Trail</name>
    <desc><![CDATA[1ère section d'un mini raid organisé par Arnaud.]]></desc>
  </metadata>
  <trk>
    <name><![CDATA[51]]></name>
    <trkseg>
      <trkpt lat="43.74277" lon="7.25543">
        <ele>382</ele>
        <time>2010-08-28T08:02:45Z</time>
      </trkpt>
      <trkpt lat="43.74277" lon="7.25543">
        <ele>382</ele>
        <time>2010-08-28T08:02:46Z</time>
      </trkpt>
      <trkpt lat="43.74278" lon="7.25543">
        <ele>382</ele>
        <time>2010-08-28T08:02:47Z</time>
      </trkpt>
      <trkpt lat="43.74286" lon="7.25564">
        <ele>382</ele>
        <time>2010-08-28T08:02:53Z</time>
      </trkpt>
      <trkpt lat="43.74291" lon="7.2558">
        <ele>382</ele>
        <time>2010-08-28T08:02:57Z</time>
      </trkpt>
      <trkpt lat="43.74297" lon="7.25595">
        <ele>380</ele>
        <time>2010-08-28T08:03:01Z</time>
      </trkpt>
      <trkpt lat="43.74299" lon="7.2561">
        <ele>380</ele>
        <time>2010-08-28T08:03:05Z</time>
      </trkpt>
      <trkpt lat="43.743" lon="7.25618">
        <ele>380</ele>
        <time>2010-08-28T08:03:07Z</time>
      </trkpt>
      <trkpt lat="43.74313" lon="7.25622">
        <ele>380</ele>
        <time>2010-08-28T08:03:12Z</time>
      </trkpt>
      <trkpt lat="43.74326" lon="7.2563">
        <ele>380</ele>
        <time>2010-08-28T08:03:18Z</time>
      </trkpt>
      <trkpt lat="43.74334" lon="7.2564">
        <ele>383</ele>
        <time>2010-08-28T08:03:22Z</time>
      </trkpt>
      <trkpt lat="43.74336" lon="7.25641">
        <ele>383</ele>
        <time>2010-08-28T08:03:23Z</time>
      </trkpt>
      <trkpt lat="43.74354" lon="7.25646">
        <ele>383</ele>
        <time>2010-08-28T08:03:29Z</time>
      </trkpt>
      <trkpt lat="43.74369" lon="7.2565">
        <ele>383</ele>
        <time>2010-08-28T08:03:34Z</time>
      </trkpt>
      <trkpt lat="43.74382" lon="7.25652">
        <ele>384</ele>
        <time>2010-08-28T08:03:38Z</time>
      </trkpt>
      <trkpt lat="43.74386" lon="7.25652">
        <ele>384</ele>
        <time>2010-08-28T08:03:40Z</time>
      </trkpt>
      <trkpt lat="43.74399" lon="7.25647">
        <ele>384</ele>
        <time>2010-08-28T08:03:45Z</time>
      </trkpt>
      <trkpt lat="43.74408" lon="7.25643">
        <ele>384</ele>
        <time>2010-08-28T08:03:49Z</time>
      </trkpt>
      <trkpt lat="43.74413" lon="7.25642">
        <ele>384</ele>
        <time>2010-08-28T08:03:51Z</time>
      </trkpt>
      <trkpt lat="43.74418" lon="7.25641">
        <ele>388</ele>
        <time>2010-08-28T08:03:53Z</time>
      </trkpt>
      <trkpt lat="43.74431" lon="7.25641">
        <ele>388</ele>
        <time>2010-08-28T08:03:58Z</time>
      </trkpt>
      <trkpt lat="43.74444" lon="7.25645">
        <ele>389</ele>
        <time>2010-08-28T08:04:03Z</time>
      </trkpt>
      <trkpt lat="43.74453" lon="7.25643">
        <ele>389</ele>
        <time>2010-08-28T08:04:07Z</time>
      </trkpt>
      <trkpt lat="43.74464" lon="7.25636">
        <ele>390</ele>
        <time>2010-08-28T08:04:12Z</time>
      </trkpt>
      <trkpt lat="43.74473" lon="7.25634">
        <ele>391</ele>
        <time>2010-08-28T08:04:16Z</time>
      </trkpt>
      <trkpt lat="43.74478" lon="7.25631">
        <ele>391</ele>
        <time>2010-08-28T08:04:18Z</time>
      </trkpt>
      <trkpt lat="43.74496" lon="7.2562">
        <ele>392</ele>
        <time>2010-08-28T08:04:25Z</time>
      </trkpt>
      <trkpt lat="43.74502" lon="7.25621">
        <ele>396</ele>
        <time>2010-08-28T08:04:28Z</time>
      </trkpt>
      <trkpt lat="43.74507" lon="7.25619">
        <ele>396</ele>
        <time>2010-08-28T08:04:31Z</time>
      </trkpt>
      <trkpt lat="43.74511" lon="7.2562">
        <ele>397</ele>
        <time>2010-08-28T08:04:33Z</time>
      </trkpt>
      <trkpt lat="43.74522" lon="7.25619">
        <ele>397</ele>
        <time>2010-08-28T08:04:38Z</time>
      </trkpt>
      <trkpt lat="43.7453" lon="7.25617">
        <ele>397</ele>
        <time>2010-08-28T08:04:41Z</time>
      </trkpt>
      <trkpt lat="43.74536" lon="7.25616">
        <ele>397</ele>
        <time>2010-08-28T08:04:43Z</time>
      </trkpt>
      <trkpt lat="43.7455" lon="7.25623">
        <ele>398</ele>
        <time>2010-08-28T08:04:49Z</time>
      </trkpt>
      <trkpt lat="43.74556" lon="7.25625">
        <ele>398</ele>
        <time>2010-08-28T08:04:52Z</time>
      </trkpt>
      <trkpt lat="43.74565" lon="7.2562">
        <ele>399</ele>
        <time>2010-08-28T08:04:56Z</time>
      </trkpt>
      <trkpt lat="43.74574" lon="7.25608">
        <ele>398</ele>
        <time>2010-08-28T08:05:02Z</time>
      </trkpt>
      <trkpt lat="43.74584" lon="7.25603">
        <ele>402</ele>
        <time>2010-08-28T08:05:07Z</time>
      </trkpt>
      <trkpt lat="43.74593" lon="7.256">
        <ele>402</ele>
        <time>2010-08-28T08:05:12Z</time>
      </trkpt>
      <trkpt lat="43.74603" lon="7.25598">
        <ele>402</ele>
        <time>2010-08-28T08:05:17Z</time>
      </trkpt>
      <trkpt lat="43.74611" lon="7.25599">
        <ele>403</ele>
        <time>2010-08-28T08:05:20Z</time>
      </trkpt>
      <trkpt lat="43.74617" lon="7.25601">
        <ele>403</ele>
        <time>2010-08-28T08:05:22Z</time>
      </trkpt>
      <trkpt lat="43.74624" lon="7.25598">
        <ele>403</ele>
        <time>2010-08-28T08:05:25Z</time>
      </trkpt>
      <trkpt lat="43.74635" lon="7.25595">
        <ele>404</ele>
        <time>2010-08-28T08:05:30Z</time>
      </trkpt>
      <trkpt lat="43.74648" lon="7.25595">
        <ele>404</ele>
        <time>2010-08-28T08:05:34Z</time>
      </trkpt>
      <trkpt lat="43.74655" lon="7.25594">
        <ele>404</ele>
        <time>2010-08-28T08:05:36Z</time>
      </trkpt>
      <trkpt lat="43.7467" lon="7.25591">
        <ele>405</ele>
        <time>2010-08-28T08:05:40Z</time>
      </trkpt>
      <trkpt lat="43.74677" lon="7.25583">
        <ele>402</ele>
        <time>2010-08-28T08:05:43Z</time>
      </trkpt>
      <trkpt lat="43.74687" lon="7.25574">
        <ele>401</ele>
        <time>2010-08-28T08:05:47Z</time>
      </trkpt>
      <trkpt lat="43.74696" lon="7.25563">
        <ele>401</ele>
        <time>2010-08-28T08:05:51Z</time>
      </trkpt>
      <trkpt lat="43.74698" lon="7.25551">
        <ele>400</ele>
        <time>2010-08-28T08:05:54Z</time>
      </trkpt>
      <trkpt lat="43.74701" lon="7.25539">
        <ele>400</ele>
        <time>2010-08-28T08:05:57Z</time>
      </trkpt>
      <trkpt lat="43.74704" lon="7.25532">
        <ele>399</ele>
        <time>2010-08-28T08:05:59Z</time>
      </trkpt>
      <trkpt lat="43.74704" lon="7.25525">
        <ele>399</ele>
        <time>2010-08-28T08:06:01Z</time>
      </trkpt>
      <trkpt lat="43.74698" lon="7.2551">
        <ele>398</ele>
        <time>2010-08-28T08:06:07Z</time>
      </trkpt>
      <trkpt lat="43.74693" lon="7.255">
        <ele>392</ele>
        <time>2010-08-28T08:06:11Z</time>
      </trkpt>
      <trkpt lat="43.74694" lon="7.25491">
        <ele>392</ele>
        <time>2010-08-28T08:06:14Z</time>
      </trkpt>
      <trkpt lat="43.74696" lon="7.25472">
        <ele>390</ele>
        <time>2010-08-28T08:06:19Z</time>
      </trkpt>
      <trkpt lat="43.74697" lon="7.25469">
        <ele>390</ele>
        <time>2010-08-28T08:06:22Z</time>
      </trkpt>
      <trkpt lat="43.74703" lon="7.25461">
        <ele>389</ele>
        <time>2010-08-28T08:06:28Z</time>
      </trkpt>
      <trkpt lat="43.74704" lon="7.25458">
        <ele>389</ele>
        <time>2010-08-28T08:06:29Z</time>
      </trkpt>
      <trkpt lat="43.74708" lon="7.25438">
        <ele>388</ele>
        <time>2010-08-28T08:06:35Z</time>
      </trkpt>
      <trkpt lat="43.7471" lon="7.25419">
        <ele>387</ele>
        <time>2010-08-28T08:06:40Z</time>
      </trkpt>
      <trkpt lat="43.74703" lon="7.2541">
        <ele>382</ele>
        <time>2010-08-28T08:06:44Z</time>
      </trkpt>
      <trkpt lat="43.74702" lon="7.25403">
        <ele>382</ele>
        <time>2010-08-28T08:06:47Z</time>
      </trkpt>
      <trkpt lat="43.74703" lon="7.25398">
        <ele>381</ele>
        <time>2010-08-28T08:06:49Z</time>
      </trkpt>
      <trkpt lat="43.7471" lon="7.25393">
        <ele>381</ele>
        <time>2010-08-28T08:06:54Z</time>
      </trkpt>
      <trkpt lat="43.74708" lon="7.25384">
        <ele>381</ele>
        <time>2010-08-28T08:06:58Z</time>
      </trkpt>
      <trkpt lat="43.74702" lon="7.25365">
        <ele>380</ele>
        <time>2010-08-28T08:07:03Z</time>
      </trkpt>
      <trkpt lat="43.74701" lon="7.2536">
        <ele>380</ele>
        <time>2010-08-28T08:07:04Z</time>
      </trkpt>
      <trkpt lat="43.74699" lon="7.25354">
        <ele>379</ele>
        <time>2010-08-28T08:07:06Z</time>
      </trkpt>
      <trkpt lat="43.74709" lon="7.25346">
        <ele>379</ele>
        <time>2010-08-28T08:07:12Z</time>
      </trkpt>
      <trkpt lat="43.74715" lon="7.25344">
        <ele>380</ele>
        <time>2010-08-28T08:07:14Z</time>
      </trkpt>
      <trkpt lat="43.74731" lon="7.25337">
        <ele>381</ele>
        <time>2010-08-28T08:07:20Z</time>
      </trkpt>
      <trkpt lat="43.74746" lon="7.25335">
        <ele>382</ele>
        <time>2010-08-28T08:07:25Z</time>
      </trkpt>
      <trkpt lat="43.74762" lon="7.25341">
        <ele>385</ele>
        <time>2010-08-28T08:07:30Z</time>
      </trkpt>
      <trkpt lat="43.74771" lon="7.25349">
        <ele>386</ele>
        <time>2010-08-28T08:07:34Z</time>
      </trkpt>
      <trkpt lat="43.74776" lon="7.25358">
        <ele>387</ele>
        <time>2010-08-28T08:07:40Z</time>
      </trkpt>
      <trkpt lat="43.74777" lon="7.25365">
        <ele>387</ele>
        <time>2010-08-28T08:07:45Z</time>
      </trkpt>
      <trkpt lat="43.74776" lon="7.25375">
        <ele>387</ele>
        <time>2010-08-28T08:07:49Z</time>
      </trkpt>
      <trkpt lat="43.74778" lon="7.25386">
        <ele>387</ele>
        <time>2010-08-28T08:07:54Z</time>
      </trkpt>
      <trkpt lat="43.74775" lon="7.25393">
        <ele>387</ele>
        <time>2010-08-28T08:07:58Z</time>
      </trkpt>
      <trkpt lat="43.74775" lon="7.25401">
        <ele>386</ele>
        <time>2010-08-28T08:08:02Z</time>
      </trkpt>
      <trkpt lat="43.74774" lon="7.25402">
        <ele>386</ele>
        <time>2010-08-28T08:08:03Z</time>
      </trkpt>
      <trkpt lat="43.74774" lon="7.25416">
        <ele>386</ele>
        <time>2010-08-28T08:08:09Z</time>
      </trkpt>
      <trkpt lat="43.74771" lon="7.2542">
        <ele>387</ele>
        <time>2010-08-28T08:08:11Z</time>
      </trkpt>
      <trkpt lat="43.74769" lon="7.25434">
        <ele>388</ele>
        <time>2010-08-28T08:08:17Z</time>
      </trkpt>
      <trkpt lat="43.74776" lon="7.25434">
        <ele>389</ele>
        <time>2010-08-28T08:08:21Z</time>
      </trkpt>
      <trkpt lat="43.74778" lon="7.25435">
        <ele>389</ele>
        <time>2010-08-28T08:08:22Z</time>
      </trkpt>
      <trkpt lat="43.74786" lon="7.25447">
        <ele>390</ele>
        <time>2010-08-28T08:08:27Z</time>
      </trkpt>
      <trkpt lat="43.74789" lon="7.25456">
        <ele>391</ele>
        <time>2010-08-28T08:08:31Z</time>
      </trkpt>
      <trkpt lat="43.74791" lon="7.25474">
        <ele>392</ele>
        <time>2010-08-28T08:08:38Z</time>
      </trkpt>
      <trkpt lat="43.74792" lon="7.25477">
        <ele>392</ele>
        <time>2010-08-28T08:08:39Z</time>
      </trkpt>
      <trkpt lat="43.74797" lon="7.25493">
        <ele>393</ele>
        <time>2010-08-28T08:08:45Z</time>
      </trkpt>
      <trkpt lat="43.74802" lon="7.25504">
        <ele>400</ele>
        <time>2010-08-28T08:08:49Z</time>
      </trkpt>
      <trkpt lat="43.74808" lon="7.25512">
        <ele>401</ele>
        <time>2010-08-28T08:08:53Z</time>
      </trkpt>
      <trkpt lat="43.7481" lon="7.25529">
        <ele>402</ele>
        <time>2010-08-28T08:08:59Z</time>
      </trkpt>
      <trkpt lat="43.74808" lon="7.25548">
        <ele>403</ele>
        <time>2010-08-28T08:09:06Z</time>
      </trkpt>
      <trkpt lat="43.7481" lon="7.25558">
        <ele>404</ele>
        <time>2010-08-28T08:09:10Z</time>
      </trkpt>
      <trkpt lat="43.74815" lon="7.25562">
        <ele>405</ele>
        <time>2010-08-28T08:09:13Z</time>
      </trkpt>
      <trkpt lat="43.7482" lon="7.25564">
        <ele>405</ele>
        <time>2010-08-28T08:09:16Z</time>
      </trkpt>
      <trkpt lat="43.74826" lon="7.25563">
        <ele>406</ele>
        <time>2010-08-28T08:09:18Z</time>
      </trkpt>
      <trkpt lat="43.74842" lon="7.25564">
        <ele>407</ele>
        <time>2010-08-28T08:09:22Z</time>
      </trkpt>
      <trkpt lat="43.74855" lon="7.25561">
        <ele>406</ele>
        <time>2010-08-28T08:09:26Z</time>
      </trkpt>
      <trkpt lat="43.74869" lon="7.25561">
        <ele>406</ele>
        <time>2010-08-28T08:09:31Z</time>
      </trkpt>
      <trkpt lat="43.74874" lon="7.25564">
        <ele>406</ele>
        <time>2010-08-28T08:09:33Z</time>
      </trkpt>
      <trkpt lat="43.74889" lon="7.25561">
        <ele>406</ele>
        <time>2010-08-28T08:09:38Z</time>
      </trkpt>
      <trkpt lat="43.74898" lon="7.25561">
        <ele>407</ele>
        <time>2010-08-28T08:09:41Z</time>
      </trkpt>
      <trkpt lat="43.7491" lon="7.25559">
        <ele>407</ele>
        <time>2010-08-28T08:09:45Z</time>
      </trkpt>
      <trkpt lat="43.7492" lon="7.25559">
        <ele>408</ele>
        <time>2010-08-28T08:09:49Z</time>
      </trkpt>
      <trkpt lat="43.74934" lon="7.25558">
        <ele>408</ele>
        <time>2010-08-28T08:09:53Z</time>
      </trkpt>
      <trkpt lat="43.74944" lon="7.25555">
        <ele>407</ele>
        <time>2010-08-28T08:09:57Z</time>
      </trkpt>
      <trkpt lat="43.7495" lon="7.25554">
        <ele>407</ele>
        <time>2010-08-28T08:09:59Z</time>
      </trkpt>
      <trkpt lat="43.74962" lon="7.25547">
        <ele>407</ele>
        <time>2010-08-28T08:10:04Z</time>
      </trkpt>
      <trkpt lat="43.74972" lon="7.25549">
        <ele>407</ele>
        <time>2010-08-28T08:10:07Z</time>
      </trkpt>
      <trkpt lat="43.74981" lon="7.25545">
        <ele>407</ele>
        <time>2010-08-28T08:10:11Z</time>
      </trkpt>
      <trkpt lat="43.74994" lon="7.25546">
        <ele>408</ele>
        <time>2010-08-28T08:10:15Z</time>
      </trkpt>
      <trkpt lat="43.75002" lon="7.25543">
        <ele>411</ele>
        <time>2010-08-28T08:10:18Z</time>
      </trkpt>
      <trkpt lat="43.75008" lon="7.25539">
        <ele>410</ele>
        <time>2010-08-28T08:10:21Z</time>
      </trkpt>
      <trkpt lat="43.75013" lon="7.25538">
        <ele>410</ele>
        <time>2010-08-28T08:10:23Z</time>
      </trkpt>
      <trkpt lat="43.7502" lon="7.25537">
        <ele>411</ele>
        <time>2010-08-28T08:10:25Z</time>
      </trkpt>
      <trkpt lat="43.75033" lon="7.25532">
        <ele>411</ele>
        <time>2010-08-28T08:10:30Z</time>
      </trkpt>
      <trkpt lat="43.7504" lon="7.25531">
        <ele>411</ele>
        <time>2010-08-28T08:10:33Z</time>
      </trkpt>
      <trkpt lat="43.7505" lon="7.25526">
        <ele>411</ele>
        <time>2010-08-28T08:10:37Z</time>
      </trkpt>
      <trkpt lat="43.75059" lon="7.25527">
        <ele>412</ele>
        <time>2010-08-28T08:10:40Z</time>
      </trkpt>
      <trkpt lat="43.75065" lon="7.25526">
        <ele>412</ele>
        <time>2010-08-28T08:10:42Z</time>
      </trkpt>
      <trkpt lat="43.75076" lon="7.25525">
        <ele>412</ele>
        <time>2010-08-28T08:10:46Z</time>
      </trkpt>
      <trkpt lat="43.75087" lon="7.25524">
        <ele>418</ele>
        <time>2010-08-28T08:10:49Z</time>
      </trkpt>
      <trkpt lat="43.75093" lon="7.25522">
        <ele>418</ele>
        <time>2010-08-28T08:10:51Z</time>
      </trkpt>
      <trkpt lat="43.75101" lon="7.25517">
        <ele>418</ele>
        <time>2010-08-28T08:10:54Z</time>
      </trkpt>
      <trkpt lat="43.7511" lon="7.25508">
        <ele>418</ele>
        <time>2010-08-28T08:10:58Z</time>
      </trkpt>
      <trkpt lat="43.75115" lon="7.25492">
        <ele>415</ele>
        <time>2010-08-28T08:11:02Z</time>
      </trkpt>
      <trkpt lat="43.75118" lon="7.2548">
        <ele>416</ele>
        <time>2010-08-28T08:11:05Z</time>
      </trkpt>
      <trkpt lat="43.75127" lon="7.25462">
        <ele>416</ele>
        <time>2010-08-28T08:11:10Z</time>
      </trkpt>
      <trkpt lat="43.75132" lon="7.25454">
        <ele>416</ele>
        <time>2010-08-28T08:11:13Z</time>
      </trkpt>
      <trkpt lat="43.75136" lon="7.25441">
        <ele>417</ele>
        <time>2010-08-28T08:11:16Z</time>
      </trkpt>
      <trkpt lat="43.75138" lon="7.25438">
        <ele>417</ele>
        <time>2010-08-28T08:11:17Z</time>
      </trkpt>
      <trkpt lat="43.75148" lon="7.25423">
        <ele>418</ele>
        <time>2010-08-28T08:11:22Z</time>
      </trkpt>
      <trkpt lat="43.75148" lon="7.25414">
        <ele>418</ele>
        <time>2010-08-28T08:11:25Z</time>
      </trkpt>
      <trkpt lat="43.75152" lon="7.25403">
        <ele>418</ele>
        <time>2010-08-28T08:11:28Z</time>
      </trkpt>
      <trkpt lat="43.75159" lon="7.25395">
        <ele>418</ele>
        <time>2010-08-28T08:11:31Z</time>
      </trkpt>
      <trkpt lat="43.75162" lon="7.25392">
        <ele>419</ele>
        <time>2010-08-28T08:11:32Z</time>
      </trkpt>
      <trkpt lat="43.75178" lon="7.2538">
        <ele>423</ele>
        <time>2010-08-28T08:11:37Z</time>
      </trkpt>
      <trkpt lat="43.75188" lon="7.25372">
        <ele>424</ele>
        <time>2010-08-28T08:11:41Z</time>
      </trkpt>
      <trkpt lat="43.75197" lon="7.25358">
        <ele>424</ele>
        <time>2010-08-28T08:11:46Z</time>
      </trkpt>
      <trkpt lat="43.75207" lon="7.25352">
        <ele>424</ele>
        <time>2010-08-28T08:11:50Z</time>
      </trkpt>
      <trkpt lat="43.75211" lon="7.25349">
        <ele>424</ele>
        <time>2010-08-28T08:11:52Z</time>
      </trkpt>
      <trkpt lat="43.75222" lon="7.25343">
        <ele>425</ele>
        <time>2010-08-28T08:11:58Z</time>
      </trkpt>
      <trkpt lat="43.75224" lon="7.25342">
        <ele>425</ele>
        <time>2010-08-28T08:11:59Z</time>
      </trkpt>
      <trkpt lat="43.75231" lon="7.25324">
        <ele>425</ele>
        <time>2010-08-28T08:12:04Z</time>
      </trkpt>
      <trkpt lat="43.75238" lon="7.25304">
        <ele>425</ele>
        <time>2010-08-28T08:12:09Z</time>
      </trkpt>
      <trkpt lat="43.75239" lon="7.25301">
        <ele>425</ele>
        <time>2010-08-28T08:12:10Z</time>
      </trkpt>
      <trkpt lat="43.75251" lon="7.25294">
        <ele>427</ele>
        <time>2010-08-28T08:12:15Z</time>
      </trkpt>
      <trkpt lat="43.75254" lon="7.25295">
        <ele>427</ele>
        <time>2010-08-28T08:12:16Z</time>
      </trkpt>
      <trkpt lat="43.7527" lon="7.253">
        <ele>427</ele>
        <time>2010-08-28T08:12:21Z</time>
      </trkpt>
      <trkpt lat="43.75289" lon="7.25302">
        <ele>427</ele>
        <time>2010-08-28T08:12:27Z</time>
      </trkpt>
      <trkpt lat="43.75297" lon="7.25303">
        <ele>427</ele>
        <time>2010-08-28T08:12:30Z</time>
      </trkpt>
      <trkpt lat="43.75309" lon="7.25307">
        <ele>428</ele>
        <time>2010-08-28T08:12:35Z</time>
      </trkpt>
      <trkpt lat="43.75316" lon="7.25313">
        <ele>428</ele>
        <time>2010-08-28T08:12:38Z</time>
      </trkpt>
      <trkpt lat="43.75321" lon="7.25317">
        <ele>428</ele>
        <time>2010-08-28T08:12:41Z</time>
      </trkpt>
      <trkpt lat="43.75328" lon="7.25323">
        <ele>428</ele>
        <time>2010-08-28T08:12:44Z</time>
      </trkpt>
      <trkpt lat="43.75332" lon="7.25325">
        <ele>428</ele>
        <time>2010-08-28T08:12:46Z</time>
      </trkpt>
      <trkpt lat="43.75338" lon="7.25326">
        <ele>429</ele>
        <time>2010-08-28T08:12:48Z</time>
      </trkpt>
      <trkpt lat="43.75345" lon="7.25333">
        <ele>431</ele>
        <time>2010-08-28T08:12:51Z</time>
      </trkpt>
      <trkpt lat="43.75348" lon="7.25349">
        <ele>433</ele>
        <time>2010-08-28T08:12:56Z</time>
      </trkpt>
      <trkpt lat="43.75347" lon="7.25365">
        <ele>434</ele>
        <time>2010-08-28T08:13:02Z</time>
      </trkpt>
      <trkpt lat="43.75347" lon="7.25368">
        <ele>435</ele>
        <time>2010-08-28T08:13:03Z</time>
      </trkpt>
      <trkpt lat="43.75348" lon="7.25379">
        <ele>436</ele>
        <time>2010-08-28T08:13:07Z</time>
      </trkpt>
      <trkpt lat="43.75348" lon="7.25394">
        <ele>436</ele>
        <time>2010-08-28T08:13:12Z</time>
      </trkpt>
      <trkpt lat="43.75349" lon="7.2541">
        <ele>437</ele>
        <time>2010-08-28T08:13:18Z</time>
      </trkpt>
      <trkpt lat="43.75351" lon="7.25424">
        <ele>443</ele>
        <time>2010-08-28T08:13:24Z</time>
      </trkpt>
      <trkpt lat="43.75351" lon="7.25427">
        <ele>443</ele>
        <time>2010-08-28T08:13:25Z</time>
      </trkpt>
      <trkpt lat="43.75352" lon="7.25444">
        <ele>445</ele>
        <time>2010-08-28T08:13:31Z</time>
      </trkpt>
      <trkpt lat="43.75351" lon="7.25456">
        <ele>446</ele>
        <time>2010-08-28T08:13:36Z</time>
      </trkpt>
      <trkpt lat="43.75354" lon="7.25474">
        <ele>448</ele>
        <time>2010-08-28T08:13:45Z</time>
      </trkpt>
      <trkpt lat="43.75355" lon="7.25486">
        <ele>448</ele>
        <time>2010-08-28T08:13:49Z</time>
      </trkpt>
      <trkpt lat="43.75354" lon="7.2549">
        <ele>448</ele>
        <time>2010-08-28T08:13:51Z</time>
      </trkpt>
      <trkpt lat="43.75348" lon="7.25501">
        <ele>453</ele>
        <time>2010-08-28T08:13:58Z</time>
      </trkpt>
      <trkpt lat="43.75343" lon="7.25513">
        <ele>454</ele>
        <time>2010-08-28T08:14:05Z</time>
      </trkpt>
      <trkpt lat="43.75343" lon="7.25514">
        <ele>454</ele>
        <time>2010-08-28T08:14:06Z</time>
      </trkpt>
      <trkpt lat="43.75339" lon="7.25528">
        <ele>456</ele>
        <time>2010-08-28T08:14:13Z</time>
      </trkpt>
      <trkpt lat="43.75335" lon="7.25544">
        <ele>458</ele>
        <time>2010-08-28T08:14:21Z</time>
      </trkpt>
      <trkpt lat="43.75332" lon="7.25558">
        <ele>454</ele>
        <time>2010-08-28T08:14:28Z</time>
      </trkpt>
      <trkpt lat="43.75331" lon="7.25561">
        <ele>455</ele>
        <time>2010-08-28T08:14:30Z</time>
      </trkpt>
      <trkpt lat="43.75327" lon="7.25576">
        <ele>458</ele>
        <time>2010-08-28T08:14:38Z</time>
      </trkpt>
      <trkpt lat="43.75324" lon="7.25591">
        <ele>462</ele>
        <time>2010-08-28T08:14:46Z</time>
      </trkpt>
      <trkpt lat="43.75321" lon="7.25604">
        <ele>463</ele>
        <time>2010-08-28T08:14:53Z</time>
      </trkpt>
      <trkpt lat="43.75317" lon="7.25619">
        <ele>464</ele>
        <time>2010-08-28T08:15:01Z</time>
      </trkpt>
      <trkpt lat="43.75314" lon="7.25632">
        <ele>465</ele>
        <time>2010-08-28T08:15:08Z</time>
      </trkpt>
      <trkpt lat="43.7531" lon="7.25646">
        <ele>466</ele>
        <time>2010-08-28T08:15:16Z</time>
      </trkpt>
      <trkpt lat="43.75308" lon="7.25659">
        <ele>467</ele>
        <time>2010-08-28T08:15:23Z</time>
      </trkpt>
      <trkpt lat="43.75305" lon="7.25672">
        <ele>475</ele>
        <time>2010-08-28T08:15:30Z</time>
      </trkpt>
      <trkpt lat="43.75301" lon="7.25686">
        <ele>475</ele>
        <time>2010-08-28T08:15:37Z</time>
      </trkpt>
      <trkpt lat="43.75298" lon="7.257">
        <ele>476</ele>
        <time>2010-08-28T08:15:44Z</time>
      </trkpt>
      <trkpt lat="43.75295" lon="7.25715">
        <ele>477</ele>
        <time>2010-08-28T08:15:52Z</time>
      </trkpt>
      <trkpt lat="43.75291" lon="7.2573">
        <ele>478</ele>
        <time>2010-08-28T08:15:57Z</time>
      </trkpt>
      <trkpt lat="43.75289" lon="7.25742">
        <ele>479</ele>
        <time>2010-08-28T08:16:01Z</time>
      </trkpt>
      <trkpt lat="43.75285" lon="7.2576">
        <ele>486</ele>
        <time>2010-08-28T08:16:06Z</time>
      </trkpt>
      <trkpt lat="43.7528" lon="7.25781">
        <ele>486</ele>
        <time>2010-08-28T08:16:12Z</time>
      </trkpt>
      <trkpt lat="43.75277" lon="7.25796">
        <ele>487</ele>
        <time>2010-08-28T08:16:17Z</time>
      </trkpt>
      <trkpt lat="43.75275" lon="7.2581">
        <ele>487</ele>
        <time>2010-08-28T08:16:22Z</time>
      </trkpt>
      <trkpt lat="43.75271" lon="7.25822">
        <ele>487</ele>
        <time>2010-08-28T08:16:27Z</time>
      </trkpt>
      <trkpt lat="43.75269" lon="7.25834">
        <ele>491</ele>
        <time>2010-08-28T08:16:32Z</time>
      </trkpt>
      <trkpt lat="43.75262" lon="7.25845">
        <ele>491</ele>
        <time>2010-08-28T08:16:37Z</time>
      </trkpt>
      <trkpt lat="43.7525" lon="7.25853">
        <ele>487</ele>
        <time>2010-08-28T08:16:42Z</time>
      </trkpt>
      <trkpt lat="43.75246" lon="7.25854">
        <ele>487</ele>
        <time>2010-08-28T08:16:43Z</time>
      </trkpt>
      <trkpt lat="43.75231" lon="7.25854">
        <ele>487</ele>
        <time>2010-08-28T08:16:47Z</time>
      </trkpt>
      <trkpt lat="43.75216" lon="7.25858">
        <ele>487</ele>
        <time>2010-08-28T08:16:51Z</time>
      </trkpt>
      <trkpt lat="43.75198" lon="7.25866">
        <ele>486</ele>
        <time>2010-08-28T08:16:56Z</time>
      </trkpt>
      <trkpt lat="43.75191" lon="7.25866">
        <ele>486</ele>
        <time>2010-08-28T08:16:58Z</time>
      </trkpt>
      <trkpt lat="43.75174" lon="7.25872">
        <ele>485</ele>
        <time>2010-08-28T08:17:03Z</time>
      </trkpt>
      <trkpt lat="43.7516" lon="7.25869">
        <ele>480</ele>
        <time>2010-08-28T08:17:07Z</time>
      </trkpt>
      <trkpt lat="43.75145" lon="7.25869">
        <ele>479</ele>
        <time>2010-08-28T08:17:11Z</time>
      </trkpt>
      <trkpt lat="43.75132" lon="7.25867">
        <ele>479</ele>
        <time>2010-08-28T08:17:14Z</time>
      </trkpt>
      <trkpt lat="43.75127" lon="7.25868">
        <ele>479</ele>
        <time>2010-08-28T08:17:15Z</time>
      </trkpt>
      <trkpt lat="43.7511" lon="7.25869">
        <ele>478</ele>
        <time>2010-08-28T08:17:19Z</time>
      </trkpt>
      <trkpt lat="43.75093" lon="7.25871">
        <ele>477</ele>
        <time>2010-08-28T08:17:23Z</time>
      </trkpt>
      <trkpt lat="43.75079" lon="7.25867">
        <ele>474</ele>
        <time>2010-08-28T08:17:27Z</time>
      </trkpt>
      <trkpt lat="43.75073" lon="7.2586">
        <ele>473</ele>
        <time>2010-08-28T08:17:29Z</time>
      </trkpt>
      <trkpt lat="43.75058" lon="7.25857">
        <ele>473</ele>
        <time>2010-08-28T08:17:33Z</time>
      </trkpt>
      <trkpt lat="43.75035" lon="7.25853">
        <ele>472</ele>
        <time>2010-08-28T08:17:39Z</time>
      </trkpt>
      <trkpt lat="43.75021" lon="7.25854">
        <ele>472</ele>
        <time>2010-08-28T08:17:43Z</time>
      </trkpt>
      <trkpt lat="43.75002" lon="7.25846">
        <ele>470</ele>
        <time>2010-08-28T08:17:48Z</time>
      </trkpt>
      <trkpt lat="43.74984" lon="7.25849">
        <ele>469</ele>
        <time>2010-08-28T08:17:53Z</time>
      </trkpt>
      <trkpt lat="43.74968" lon="7.25846">
        <ele>469</ele>
        <time>2010-08-28T08:17:58Z</time>
      </trkpt>
      <trkpt lat="43.74953" lon="7.25835">
        <ele>468</ele>
        <time>2010-08-28T08:18:03Z</time>
      </trkpt>
      <trkpt lat="43.7494" lon="7.25832">
        <ele>463</ele>
        <time>2010-08-28T08:18:07Z</time>
      </trkpt>
      <trkpt lat="43.74928" lon="7.2583">
        <ele>464</ele>
        <time>2010-08-28T08:18:10Z</time>
      </trkpt>
      <trkpt lat="43.74912" lon="7.25833">
        <ele>465</ele>
        <time>2010-08-28T08:18:15Z</time>
      </trkpt>
      <trkpt lat="43.74895" lon="7.25835">
        <ele>467</ele>
        <time>2010-08-28T08:18:20Z</time>
      </trkpt>
      <trkpt lat="43.74878" lon="7.25835">
        <ele>467</ele>
        <time>2010-08-28T08:18:25Z</time>
      </trkpt>
      <trkpt lat="43.74859" lon="7.25833">
        <ele>462</ele>
        <time>2010-08-28T08:18:30Z</time>
      </trkpt>
      <trkpt lat="43.74845" lon="7.25836">
        <ele>467</ele>
        <time>2010-08-28T08:18:34Z</time>
      </trkpt>
      <trkpt lat="43.74842" lon="7.25836">
        <ele>467</ele>
        <time>2010-08-28T08:18:35Z</time>
      </trkpt>
      <trkpt lat="43.74821" lon="7.25835">
        <ele>465</ele>
        <time>2010-08-28T08:18:41Z</time>
      </trkpt>
      <trkpt lat="43.74805" lon="7.25834">
        <ele>464</ele>
        <time>2010-08-28T08:18:46Z</time>
      </trkpt>
      <trkpt lat="43.74802" lon="7.25833">
        <ele>459</ele>
        <time>2010-08-28T08:18:47Z</time>
      </trkpt>
      <trkpt lat="43.74783" lon="7.25837">
        <ele>463</ele>
        <time>2010-08-28T08:18:53Z</time>
      </trkpt>
      <trkpt lat="43.74774" lon="7.2584">
        <ele>462</ele>
        <time>2010-08-28T08:18:56Z</time>
      </trkpt>
      <trkpt lat="43.74758" lon="7.25846">
        <ele>462</ele>
        <time>2010-08-28T08:19:01Z</time>
      </trkpt>
      <trkpt lat="43.74746" lon="7.25858">
        <ele>455</ele>
        <time>2010-08-28T08:19:05Z</time>
      </trkpt>
      <trkpt lat="43.74731" lon="7.25869">
        <ele>454</ele>
        <time>2010-08-28T08:19:10Z</time>
      </trkpt>
      <trkpt lat="43.74725" lon="7.25873">
        <ele>453</ele>
        <time>2010-08-28T08:19:12Z</time>
      </trkpt>
      <trkpt lat="43.74714" lon="7.25881">
        <ele>452</ele>
        <time>2010-08-28T08:19:18Z</time>
      </trkpt>
      <trkpt lat="43.74705" lon="7.25887">
        <ele>451</ele>
        <time>2010-08-28T08:19:22Z</time>
      </trkpt>
      <trkpt lat="43.74694" lon="7.25885">
        <ele>450</ele>
        <time>2010-08-28T08:19:26Z</time>
      </trkpt>
      <trkpt lat="43.74683" lon="7.25887">
        <ele>449</ele>
        <time>2010-08-28T08:19:31Z</time>
      </trkpt>
      <trkpt lat="43.74683" lon="7.25875">
        <ele>449</ele>
        <time>2010-08-28T08:19:34Z</time>
      </trkpt>
      <trkpt lat="43.74677" lon="7.25864">
        <ele>449</ele>
        <time>2010-08-28T08:19:37Z</time>
      </trkpt>
      <trkpt lat="43.7467" lon="7.25858">
        <ele>448</ele>
        <time>2010-08-28T08:19:39Z</time>
      </trkpt>
      <trkpt lat="43.74652" lon="7.25845">
        <ele>440</ele>
        <time>2010-08-28T08:19:45Z</time>
      </trkpt>
      <trkpt lat="43.74636" lon="7.25853">
        <ele>438</ele>
        <time>2010-08-28T08:19:50Z</time>
      </trkpt>
      <trkpt lat="43.74619" lon="7.25862">
        <ele>437</ele>
        <time>2010-08-28T08:19:55Z</time>
      </trkpt>
      <trkpt lat="43.74605" lon="7.25872">
        <ele>436</ele>
        <time>2010-08-28T08:20:00Z</time>
      </trkpt>
      <trkpt lat="43.74589" lon="7.25872">
        <ele>435</ele>
        <time>2010-08-28T08:20:05Z</time>
      </trkpt>
      <trkpt lat="43.74579" lon="7.25872">
        <ele>424</ele>
        <time>2010-08-28T08:20:08Z</time>
      </trkpt>
      <trkpt lat="43.74568" lon="7.25874">
        <ele>423</ele>
        <time>2010-08-28T08:20:12Z</time>
      </trkpt>
      <trkpt lat="43.74558" lon="7.25872">
        <ele>422</ele>
        <time>2010-08-28T08:20:16Z</time>
      </trkpt>
      <trkpt lat="43.74555" lon="7.25872">
        <ele>421</ele>
        <time>2010-08-28T08:20:17Z</time>
      </trkpt>
      <trkpt lat="43.74545" lon="7.25876">
        <ele>420</ele>
        <time>2010-08-28T08:20:22Z</time>
      </trkpt>
      <trkpt lat="43.74543" lon="7.25885">
        <ele>419</ele>
        <time>2010-08-28T08:20:25Z</time>
      </trkpt>
      <trkpt lat="43.74542" lon="7.25903">
        <ele>419</ele>
        <time>2010-08-28T08:20:30Z</time>
      </trkpt>
      <trkpt lat="43.74544" lon="7.25917">
        <ele>412</ele>
        <time>2010-08-28T08:20:34Z</time>
      </trkpt>
      <trkpt lat="43.74543" lon="7.25926">
        <ele>412</ele>
        <time>2010-08-28T08:20:38Z</time>
      </trkpt>
      <trkpt lat="43.74537" lon="7.2593">
        <ele>410</ele>
        <time>2010-08-28T08:20:41Z</time>
      </trkpt>
      <trkpt lat="43.74527" lon="7.25938">
        <ele>408</ele>
        <time>2010-08-28T08:20:45Z</time>
      </trkpt>
      <trkpt lat="43.74525" lon="7.25945">
        <ele>408</ele>
        <time>2010-08-28T08:20:48Z</time>
      </trkpt>
      <trkpt lat="43.74517" lon="7.25945">
        <ele>407</ele>
        <time>2010-08-28T08:20:51Z</time>
      </trkpt>
      <trkpt lat="43.74511" lon="7.25945">
        <ele>406</ele>
        <time>2010-08-28T08:20:53Z</time>
      </trkpt>
      <trkpt lat="43.74504" lon="7.25948">
        <ele>406</ele>
        <time>2010-08-28T08:20:56Z</time>
      </trkpt>
      <trkpt lat="43.74493" lon="7.25948">
        <ele>391</ele>
        <time>2010-08-28T08:21:01Z</time>
      </trkpt>
      <trkpt lat="43.7449" lon="7.25949">
        <ele>390</ele>
        <time>2010-08-28T08:21:02Z</time>
      </trkpt>
      <trkpt lat="43.74478" lon="7.25954">
        <ele>388</ele>
        <time>2010-08-28T08:21:06Z</time>
      </trkpt>
      <trkpt lat="43.74467" lon="7.25961">
        <ele>386</ele>
        <time>2010-08-28T08:21:11Z</time>
      </trkpt>
      <trkpt lat="43.74459" lon="7.25965">
        <ele>385</ele>
        <time>2010-08-28T08:21:15Z</time>
      </trkpt>
      <trkpt lat="43.74449" lon="7.25967">
        <ele>383</ele>
        <time>2010-08-28T08:21:18Z</time>
      </trkpt>
      <trkpt lat="43.74437" lon="7.25955">
        <ele>382</ele>
        <time>2010-08-28T08:21:23Z</time>
      </trkpt>
      <trkpt lat="43.74436" lon="7.25945">
        <ele>383</ele>
        <time>2010-08-28T08:21:26Z</time>
      </trkpt>
      <trkpt lat="43.74436" lon="7.25936">
        <ele>383</ele>
        <time>2010-08-28T08:21:30Z</time>
      </trkpt>
      <trkpt lat="43.74438" lon="7.2593">
        <ele>383</ele>
        <time>2010-08-28T08:21:34Z</time>
      </trkpt>
      <trkpt lat="43.74438" lon="7.25929">
        <ele>383</ele>
        <time>2010-08-28T08:21:35Z</time>
      </trkpt>
      <trkpt lat="43.74438" lon="7.25924">
        <ele>383</ele>
        <time>2010-08-28T08:21:37Z</time>
      </trkpt>
      <trkpt lat="43.74437" lon="7.25913">
        <ele>387</ele>
        <time>2010-08-28T08:21:41Z</time>
      </trkpt>
      <trkpt lat="43.74428" lon="7.25897">
        <ele>387</ele>
        <time>2010-08-28T08:21:46Z</time>
      </trkpt>
      <trkpt lat="43.74424" lon="7.25878">
        <ele>389</ele>
        <time>2010-08-28T08:21:51Z</time>
      </trkpt>
      <trkpt lat="43.74425" lon="7.25859">
        <ele>389</ele>
        <time>2010-08-28T08:21:56Z</time>
      </trkpt>
      <trkpt lat="43.74424" lon="7.25851">
        <ele>388</ele>
        <time>2010-08-28T08:21:58Z</time>
      </trkpt>
      <trkpt lat="43.74425" lon="7.25836">
        <ele>386</ele>
        <time>2010-08-28T08:22:02Z</time>
      </trkpt>
      <trkpt lat="43.7443" lon="7.25824">
        <ele>389</ele>
        <time>2010-08-28T08:22:05Z</time>
      </trkpt>
      <trkpt lat="43.74436" lon="7.25818">
        <ele>391</ele>
        <time>2010-08-28T08:22:08Z</time>
      </trkpt>
      <trkpt lat="43.74439" lon="7.25812">
        <ele>392</ele>
        <time>2010-08-28T08:22:10Z</time>
      </trkpt>
      <trkpt lat="43.74448" lon="7.25799">
        <ele>393</ele>
        <time>2010-08-28T08:22:16Z</time>
      </trkpt>
      <trkpt lat="43.74453" lon="7.25789">
        <ele>394</ele>
        <time>2010-08-28T08:22:20Z</time>
      </trkpt>
      <trkpt lat="43.74456" lon="7.25787">
        <ele>394</ele>
        <time>2010-08-28T08:22:21Z</time>
      </trkpt>
      <trkpt lat="43.74465" lon="7.25772">
        <ele>395</ele>
        <time>2010-08-28T08:22:27Z</time>
      </trkpt>
      <trkpt lat="43.74478" lon="7.25755">
        <ele>397</ele>
        <time>2010-08-28T08:22:33Z</time>
      </trkpt>
      <trkpt lat="43.74484" lon="7.2575">
        <ele>396</ele>
        <time>2010-08-28T08:22:36Z</time>
      </trkpt>
      <trkpt lat="43.74493" lon="7.25741">
        <ele>398</ele>
        <time>2010-08-28T08:22:40Z</time>
      </trkpt>
      <trkpt lat="43.74501" lon="7.25734">
        <ele>403</ele>
        <time>2010-08-28T08:22:44Z</time>
      </trkpt>
      <trkpt lat="43.74507" lon="7.25726">
        <ele>403</ele>
        <time>2010-08-28T08:22:48Z</time>
      </trkpt>
      <trkpt lat="43.7452" lon="7.25717">
        <ele>403</ele>
        <time>2010-08-28T08:22:54Z</time>
      </trkpt>
      <trkpt lat="43.74521" lon="7.25713">
        <ele>403</ele>
        <time>2010-08-28T08:22:56Z</time>
      </trkpt>
      <trkpt lat="43.74508" lon="7.25709">
        <ele>402</ele>
        <time>2010-08-28T08:23:00Z</time>
      </trkpt>
      <trkpt lat="43.74497" lon="7.257">
        <ele>393</ele>
        <time>2010-08-28T08:23:04Z</time>
      </trkpt>
      <trkpt lat="43.74487" lon="7.25697">
        <ele>392</ele>
        <time>2010-08-28T08:23:07Z</time>
      </trkpt>
      <trkpt lat="43.74475" lon="7.25691">
        <ele>391</ele>
        <time>2010-08-28T08:23:11Z</time>
      </trkpt>
      <trkpt lat="43.7447" lon="7.25687">
        <ele>391</ele>
        <time>2010-08-28T08:23:13Z</time>
      </trkpt>
      <trkpt lat="43.74458" lon="7.25681">
        <ele>390</ele>
        <time>2010-08-28T08:23:17Z</time>
      </trkpt>
      <trkpt lat="43.74452" lon="7.2568">
        <ele>389</ele>
        <time>2010-08-28T08:23:19Z</time>
      </trkpt>
      <trkpt lat="43.74433" lon="7.25677">
        <ele>387</ele>
        <time>2010-08-28T08:23:24Z</time>
      </trkpt>
      <trkpt lat="43.7443" lon="7.25676">
        <ele>387</ele>
        <time>2010-08-28T08:23:25Z</time>
      </trkpt>
      <trkpt lat="43.74419" lon="7.25666">
        <ele>384</ele>
        <time>2010-08-28T08:23:29Z</time>
      </trkpt>
      <trkpt lat="43.74411" lon="7.25658">
        <ele>383</ele>
        <time>2010-08-28T08:23:32Z</time>
      </trkpt>
      <trkpt lat="43.74399" lon="7.25648">
        <ele>384</ele>
        <time>2010-08-28T08:23:36Z</time>
      </trkpt>
      <trkpt lat="43.74394" lon="7.25646">
        <ele>384</ele>
        <time>2010-08-28T08:23:38Z</time>
      </trkpt>
      <trkpt lat="43.74377" lon="7.25646">
        <ele>384</ele>
        <time>2010-08-28T08:23:43Z</time>
      </trkpt>
      <trkpt lat="43.74362" lon="7.25644">
        <ele>383</ele>
        <time>2010-08-28T08:23:47Z</time>
      </trkpt>
      <trkpt lat="43.74344" lon="7.25638">
        <ele>383</ele>
        <time>2010-08-28T08:23:52Z</time>
      </trkpt>
      <trkpt lat="43.74326" lon="7.25627">
        <ele>380</ele>
        <time>2010-08-28T08:23:57Z</time>
      </trkpt>
      <trkpt lat="43.74322" lon="7.25619">
        <ele>380</ele>
        <time>2010-08-28T08:23:59Z</time>
      </trkpt>
      <trkpt lat="43.74308" lon="7.25616">
        <ele>380</ele>
        <time>2010-08-28T08:24:03Z</time>
      </trkpt>
      <trkpt lat="43.74301" lon="7.25614">
        <ele>380</ele>
        <time>2010-08-28T08:24:05Z</time>
      </trkpt>
      <trkpt lat="43.74295" lon="7.25594">
        <ele>380</ele>
        <time>2010-08-28T08:24:10Z</time>
      </trkpt>
      <trkpt lat="43.74292" lon="7.25583">
        <ele>382</ele>
        <time>2010-08-28T08:24:13Z</time>
      </trkpt>
      <trkpt lat="43.74283" lon="7.25567">
        <ele>382</ele>
        <time>2010-08-28T08:24:17Z</time>
      </trkpt>
      <trkpt lat="43.74276" lon="7.25556">
        <ele>382</ele>
        <time>2010-08-28T08:24:21Z</time>
      </trkpt>
      <trkpt lat="43.74272" lon="7.25552">
        <ele>382</ele>
        <time>2010-08-28T08:24:26Z</time>
      </trkpt>
      <trkpt lat="43.74273" lon="7.25551">
        <ele>382</ele>
        <time>2010-08-28T08:24:36Z</time>
      </trkpt>
      <trkpt lat="43.74273" lon="7.25553">
        <ele>382</ele>
        <time>2010-08-28T08:24:49Z</time>
      </trkpt>
    </trkseg>
  </trk>
</gpx>